createdAt,value
2023-03-27T00:02:26.084Z,95656.44
2023-03-27T00:04:55.782Z,95656.44
2023-03-27T00:07:23.655Z,95653.66
2023-03-27T00:09:53.415Z,95659.53
2023-03-27T00:12:21.008Z,95664.59
2023-03-27T00:14:48.542Z,95664.59
2023-03-27T00:17:17.756Z,95654.44
2023-03-27T00:19:45.297Z,95656.06
2023-03-27T00:22:12.922Z,95651.47
2023-03-27T00:24:40.495Z,95650.50
2023-03-27T00:27:09.537Z,95651.28
2023-03-27T00:29:37.581Z,95647.66
2023-03-27T00:32:05.447Z,95651.81
2023-03-27T00:34:33.020Z,95649.38
2023-03-27T00:37:01.427Z,95644.94
2023-03-27T00:39:29.440Z,95631.19
2023-03-27T00:41:57.078Z,95639.53
2023-03-27T00:44:27.443Z,95634.69
2023-03-27T00:46:57.012Z,95631.81
2023-03-27T00:49:25.297Z,95627.66
2023-03-27T00:51:53.892Z,95635.06
2023-03-27T00:54:26.489Z,95634.06
2023-03-27T00:56:55.402Z,95639.78
2023-03-27T00:59:26.825Z,95639.25
2023-03-27T01:01:54.368Z,95643.91
2023-03-27T01:04:22.968Z,95630.41
2023-03-27T01:06:52.659Z,95638.59
2023-03-27T01:09:20.949Z,95631.28
2023-03-27T01:11:56.295Z,95637.16
2023-03-27T01:14:31.620Z,95631.28
2023-03-27T01:17:12.308Z,95635.78
2023-03-27T01:20:02.627Z,95631.75
2023-03-27T01:22:50.261Z,95636.69
2023-03-27T01:25:50.653Z,95631.44
2023-03-27T01:28:27.294Z,95642.22
2023-03-27T01:31:00.189Z,95641.78
2023-03-27T01:33:43.517Z,95637.25
2023-03-27T01:36:24.811Z,95645.94
2023-03-27T01:39:16.075Z,95637.06
2023-03-27T01:41:49.825Z,95644.50
2023-03-27T01:44:21.253Z,95643.25
2023-03-27T01:46:51.402Z,95643.06
2023-03-27T01:49:24.527Z,95644.88
2023-03-27T01:51:55.897Z,95646.50
2023-03-27T01:54:27.594Z,95655.91
2023-03-27T01:56:56.835Z,95653.09
2023-03-27T01:59:27.454Z,95657.69
2023-03-27T02:01:59.567Z,95657.53
2023-03-27T02:04:31.749Z,95662.41
2023-03-27T02:07:02.803Z,95666.03
2023-03-27T02:09:34.404Z,95666.22
2023-03-27T02:12:05.241Z,95669.84
2023-03-27T02:14:36.910Z,95667.47
2023-03-27T02:17:10.050Z,95667.47
2023-03-27T02:19:40.931Z,95667.03
2023-03-27T02:22:08.681Z,95673.72
2023-03-27T02:24:38.759Z,95670.91
2023-03-27T02:27:12.761Z,95669.19
2023-03-27T02:29:49.906Z,95676.25
2023-03-27T02:32:27.318Z,95684.91
2023-03-27T02:35:05.379Z,95679.13
2023-03-27T02:37:39.653Z,95682.75
2023-03-27T02:40:14.543Z,95685.63
2023-03-27T02:42:54.086Z,95684.38
2023-03-27T02:45:26.362Z,95689.53
2023-03-27T02:47:55.997Z,95694.88
2023-03-27T02:50:27.676Z,95700.00
2023-03-27T02:52:57.754Z,95704.91
2023-03-27T02:55:29.205Z,95710.34
2023-03-27T02:58:00.713Z,95700.00
2023-03-27T03:00:30.099Z,95710.81
2023-03-27T03:03:00.611Z,95716.13
2023-03-27T03:05:28.379Z,95716.47
2023-03-27T03:07:58.130Z,95723.34
2023-03-27T03:10:27.833Z,95727.31
2023-03-27T03:12:55.362Z,95727.28
2023-03-27T03:15:22.945Z,95740.03
2023-03-27T03:17:50.746Z,95751.81
2023-03-27T03:20:18.927Z,95756.59
2023-03-27T03:22:46.544Z,95759.94
2023-03-27T03:25:14.725Z,95759.19
2023-03-27T03:27:44.231Z,95766.75
2023-03-27T03:30:16.924Z,95782.03
2023-03-27T03:32:47.255Z,95793.47
2023-03-27T03:35:15.216Z,95809.41
2023-03-27T03:37:42.919Z,95814.38
2023-03-27T03:40:12.601Z,95819.47
2023-03-27T03:42:46.763Z,95820.31
2023-03-27T03:45:14.407Z,95831.06
2023-03-27T03:47:42.061Z,95831.41
2023-03-27T03:50:10.949Z,95838.16
2023-03-27T03:52:38.874Z,95846.47
2023-03-27T03:55:07.723Z,95862.66
2023-03-27T03:57:36.461Z,95865.78
2023-03-27T04:00:08.455Z,95879.50
2023-03-27T04:02:37.228Z,95887.03
2023-03-27T04:05:08.964Z,95883.94
2023-03-27T04:07:37.288Z,95906.28
2023-03-27T04:10:05.291Z,95925.28
2023-03-27T04:12:33.614Z,95918.72
2023-03-27T04:15:01.268Z,95923.78
2023-03-27T04:17:30.278Z,95934.22
2023-03-27T04:19:58.232Z,95940.09
2023-03-27T04:22:26.331Z,95948.72
2023-03-27T04:24:54.313Z,95947.03
2023-03-27T04:27:22.210Z,95956.03
2023-03-27T04:29:49.756Z,95965.91
2023-03-27T04:32:19.019Z,95961.34
2023-03-27T04:34:50.375Z,95973.53
2023-03-27T04:37:18.451Z,95971.41
2023-03-27T04:39:51.213Z,95985.41
2023-03-27T04:42:22.617Z,95985.88
2023-03-27T04:44:50.345Z,96003.63
2023-03-27T04:47:17.892Z,96010.00
2023-03-27T04:49:47.094Z,96016.31
2023-03-27T04:52:15.977Z,96020.88
2023-03-27T04:54:44.084Z,96030.19
2023-03-27T04:57:12.320Z,96040.63
2023-03-27T04:59:39.863Z,96040.78
2023-03-27T05:02:07.474Z,96046.31
2023-03-27T05:04:35.020Z,96051.38
2023-03-27T05:07:03.305Z,96060.00
2023-03-27T05:09:32.281Z,96065.22
2023-03-27T05:11:59.903Z,96071.94
2023-03-27T05:14:27.604Z,96081.72
2023-03-27T05:16:57.637Z,96085.00
2023-03-27T05:19:26.814Z,96097.56
2023-03-27T05:21:54.504Z,96110.91
2023-03-27T05:24:22.045Z,96118.75
2023-03-27T05:26:50.963Z,96123.00
2023-03-27T05:29:18.880Z,96127.06
2023-03-27T05:31:46.504Z,96139.78
2023-03-27T05:34:14.033Z,96145.69
2023-03-27T05:36:43.062Z,96137.19
2023-03-27T05:39:10.642Z,96150.44
2023-03-27T05:41:38.234Z,96142.59
2023-03-27T05:44:07.431Z,96155.28
2023-03-27T05:46:35.179Z,96166.19
2023-03-27T05:49:02.790Z,96176.75
2023-03-27T05:51:31.572Z,96185.19
2023-03-27T05:53:59.374Z,96181.59
2023-03-27T05:56:27.581Z,96201.50
2023-03-27T05:58:55.104Z,96200.69
2023-03-27T06:01:24.171Z,96199.03
2023-03-27T06:03:55.514Z,96211.94
2023-03-27T06:06:23.240Z,96223.44
2023-03-27T06:08:50.804Z,96221.19
2023-03-27T06:11:18.444Z,96229.56
2023-03-27T06:13:46.061Z,96224.47
2023-03-27T06:16:14.959Z,96235.13
2023-03-27T06:18:44.215Z,96244.59
2023-03-27T06:21:11.863Z,96255.72
2023-03-27T06:23:40.057Z,96265.56
2023-03-27T06:26:07.644Z,96259.84
2023-03-27T06:28:35.306Z,96252.38
2023-03-27T06:31:04.014Z,96269.44
2023-03-27T06:33:32.241Z,96273.75
2023-03-27T06:36:01.331Z,96287.59
2023-03-27T06:38:29.510Z,96290.50
2023-03-27T06:40:57.200Z,96294.44
2023-03-27T06:43:24.948Z,96305.75
2023-03-27T06:45:53.106Z,96314.72
2023-03-27T06:48:22.417Z,96321.06
2023-03-27T06:50:51.937Z,96329.56
2023-03-27T06:53:27.414Z,96335.75
2023-03-27T06:55:57.668Z,96341.59
2023-03-27T06:58:25.570Z,96340.91
2023-03-27T07:00:53.187Z,96343.41
2023-03-27T07:03:22.809Z,96354.56
2023-03-27T07:05:50.752Z,96350.25
2023-03-27T07:08:24.485Z,96363.38
2023-03-27T07:13:25.664Z,96363.81
2023-03-27T07:15:54.788Z,96377.72
2023-03-27T07:18:23.011Z,96387.50
2023-03-27T07:20:51.246Z,96385.84
2023-03-27T07:23:18.851Z,96388.94
2023-03-27T07:25:46.414Z,96399.41
2023-03-27T07:28:16.741Z,96405.88
2023-03-27T07:30:44.381Z,96406.22
2023-03-27T07:33:12.504Z,96417.72
2023-03-27T07:35:43.011Z,96415.31
2023-03-27T07:38:10.728Z,96427.69
2023-03-27T07:40:40.836Z,96435.81
2023-03-27T07:43:09.077Z,96433.34
2023-03-27T07:45:38.197Z,96443.78
2023-03-27T07:48:07.005Z,96449.03
2023-03-27T07:50:38.486Z,96458.50
2023-03-27T07:53:07.321Z,96462.75
2023-03-27T07:55:37.646Z,96464.78
2023-03-27T07:58:06.877Z,96480.59
2023-03-27T08:00:36.130Z,96473.34
2023-03-27T08:03:07.735Z,96479.47
2023-03-27T08:05:36.555Z,96482.47
2023-03-27T08:08:04.914Z,96483.69
2023-03-27T08:10:32.653Z,96495.66
2023-03-27T08:13:00.838Z,96501.69
2023-03-27T08:15:28.592Z,96499.00
2023-03-27T08:17:56.848Z,96491.88
2023-03-27T08:20:25.933Z,96500.97
2023-03-27T08:22:53.929Z,96509.47
2023-03-27T08:25:23.115Z,96510.19
2023-03-27T08:27:51.145Z,96513.22
2023-03-27T08:30:21.779Z,96517.31
2023-03-27T08:32:49.849Z,96516.59
2023-03-27T08:35:18.075Z,96521.59
2023-03-27T08:37:47.117Z,96525.13
2023-03-27T08:40:19.812Z,96530.19
2023-03-27T08:42:49.164Z,96538.53
2023-03-27T08:45:20.743Z,96542.00
2023-03-27T08:47:51.414Z,96546.59
2023-03-27T08:50:29.568Z,96547.13
2023-03-27T08:52:59.322Z,96557.34
2023-03-27T08:55:40.439Z,96555.25
2023-03-27T08:58:17.641Z,96563.69
2023-03-27T09:00:46.518Z,96568.09
2023-03-27T09:03:17.603Z,96574.06
2023-03-27T09:05:48.838Z,96576.75
2023-03-27T09:08:29.122Z,96586.63
2023-03-27T09:11:01.563Z,96581.88
2023-03-27T09:13:32.416Z,96592.16
2023-03-27T09:16:03.794Z,96600.22
2023-03-27T09:18:34.309Z,96610.16
2023-03-27T09:21:05.744Z,96614.91
2023-03-27T09:23:38.826Z,96618.31
2023-03-27T09:26:11.056Z,96617.06
2023-03-27T09:28:42.458Z,96613.78
2023-03-27T09:31:20.237Z,96625.81
2023-03-27T09:33:48.099Z,96638.69
2023-03-27T09:36:15.711Z,96638.78
2023-03-27T09:38:50.871Z,96651.69
2023-03-27T09:41:22.791Z,96650.75
2023-03-27T09:43:55.585Z,96648.59
2023-03-27T09:46:24.702Z,96656.66
2023-03-27T09:48:57.172Z,96656.34
2023-03-27T09:51:38.392Z,96678.53
2023-03-27T09:54:08.434Z,96672.81
2023-03-27T09:56:37.864Z,96672.00
2023-03-27T09:59:10.570Z,96687.94
2023-03-27T10:01:38.353Z,96691.22
2023-03-27T10:04:13.907Z,96721.84
2023-03-27T10:06:47.518Z,96698.69
2023-03-27T10:09:25.325Z,96701.59
2023-03-27T10:12:01.635Z,96708.84
2023-03-27T10:14:29.955Z,96721.59
2023-03-27T10:16:57.625Z,96713.13
2023-03-27T10:19:29.648Z,96723.63
2023-03-27T10:21:57.902Z,96730.22
2023-03-27T10:24:33.082Z,96734.47
2023-03-27T10:27:01.216Z,96735.38
2023-03-27T10:29:31.419Z,96732.09
2023-03-27T10:32:00.438Z,96748.50
2023-03-27T10:34:34.259Z,96757.22
2023-03-27T10:37:03.257Z,96747.78
2023-03-27T10:39:35.864Z,96757.34
2023-03-27T10:42:07.748Z,96757.06
2023-03-27T10:44:37.778Z,96772.41
2023-03-27T10:47:06.184Z,96758.31
2023-03-27T10:49:41.432Z,96765.66
2023-03-27T10:52:18.059Z,96771.66
2023-03-27T10:54:54.504Z,96782.41
2023-03-27T10:57:24.287Z,96778.13
2023-03-27T10:59:55.697Z,96785.50
2023-03-27T11:02:26.237Z,96801.16
2023-03-27T11:04:57.564Z,96801.44
2023-03-27T11:07:28.601Z,96787.50
2023-03-27T11:10:01.838Z,96795.38
2023-03-27T11:12:31.048Z,96795.41
2023-03-27T11:15:02.134Z,96793.94
2023-03-27T11:17:33.581Z,96790.75
2023-03-27T11:20:07.392Z,96798.78
2023-03-27T11:22:39.721Z,96794.75
2023-03-27T11:25:15.798Z,96803.63
2023-03-27T11:27:50.520Z,96805.56
2023-03-27T11:30:32.776Z,96814.94
2023-03-27T11:33:10.500Z,96828.53
2023-03-27T11:35:42.674Z,96824.50
2023-03-27T11:38:15.054Z,96821.22
2023-03-27T11:40:46.120Z,96820.66
2023-03-27T11:43:15.116Z,96828.44
2023-03-27T11:45:46.723Z,96828.66
2023-03-27T11:48:33.841Z,96826.34
2023-03-27T11:51:04.135Z,96833.69
2023-03-27T11:53:41.157Z,96841.78
2023-03-27T11:56:18.507Z,96860.19
2023-03-27T11:59:02.249Z,96866.50
2023-03-27T12:01:33.772Z,96870.25
2023-03-27T12:04:18.975Z,96863.06
2023-03-27T12:06:51.298Z,96877.72
2023-03-27T12:09:29.068Z,96874.78
2023-03-27T12:12:05.886Z,96869.59
2023-03-27T12:14:46.513Z,96867.63
2023-03-27T12:17:24.937Z,96861.09
2023-03-27T12:20:16.582Z,96855.97
2023-03-27T12:22:51.856Z,96867.53
2023-03-27T12:25:35.886Z,96879.16
2023-03-27T12:28:22.188Z,96898.69
2023-03-27T12:30:57.531Z,96891.81
2023-03-27T12:33:37.296Z,96892.84
2023-03-27T12:36:07.750Z,96891.22
2023-03-27T12:38:39.005Z,96898.09
2023-03-27T12:41:14.529Z,96900.56
2023-03-27T12:43:48.860Z,96903.22
2023-03-27T12:46:21.486Z,96894.50
2023-03-27T12:48:56.300Z,96888.84
2023-03-27T12:51:38.311Z,96889.88
2023-03-27T12:54:23.789Z,96882.97
2023-03-27T12:56:52.771Z,96880.06
2023-03-27T12:59:23.565Z,96881.63
2023-03-27T13:02:30.806Z,96900.69
2023-03-27T13:05:28.024Z,96952.50
2023-03-27T13:08:08.337Z,96932.72
2023-03-27T13:10:46.355Z,96914.19
2023-03-27T13:13:29.472Z,96913.50
2023-03-27T13:16:05.746Z,96911.38
2023-03-27T13:18:52.247Z,96907.41
2023-03-27T13:21:25.109Z,96891.53
2023-03-27T13:24:11.735Z,96897.66
2023-03-27T13:26:51.472Z,96888.34
2023-03-27T13:29:21.448Z,96890.19
2023-03-27T13:32:06.045Z,96890.31
2023-03-27T13:34:36.343Z,96889.88
2023-03-27T13:37:40.387Z,96895.41
2023-03-27T13:40:23.292Z,96894.09
2023-03-27T13:42:52.509Z,96885.56
2023-03-27T13:45:22.571Z,96883.03
2023-03-27T13:48:25.559Z,96875.06
2023-03-27T13:51:26.464Z,96889.09
2023-03-27T13:54:04.069Z,96877.56
2023-03-27T13:56:37.942Z,96883.53
2023-03-27T13:59:31.029Z,96886.78
2023-03-27T14:02:09.963Z,96888.63
2023-03-27T14:04:59.515Z,96897.75
2023-03-27T14:07:55.829Z,96898.44
2023-03-27T14:10:34.806Z,96915.91
2023-03-27T14:13:12.938Z,96926.56
2023-03-27T14:15:53.686Z,96957.06
2023-03-27T14:18:39.496Z,96965.31
2023-03-27T14:21:09.653Z,96959.78
2023-03-27T14:23:49.166Z,96952.78
2023-03-27T14:26:19.448Z,96959.97
2023-03-27T14:28:51.688Z,96952.25
2023-03-27T14:31:20.797Z,96945.88
2023-03-27T14:33:52.541Z,96940.78
2023-03-27T14:36:25.846Z,96933.41
2023-03-27T14:38:53.966Z,96940.66
2023-03-27T14:41:24.001Z,96933.91
2023-03-27T14:43:52.618Z,96938.50
2023-03-27T14:46:21.584Z,96934.78
2023-03-27T14:48:52.555Z,96936.34
2023-03-27T14:51:25.004Z,96930.19
2023-03-27T14:53:55.493Z,96934.88
2023-03-27T14:56:25.972Z,96945.53
2023-03-27T14:58:55.788Z,96955.31
2023-03-27T15:01:23.656Z,96951.63
2023-03-27T15:03:52.882Z,96951.22
2023-03-27T15:06:26.337Z,96949.41
2023-03-27T15:08:58.778Z,96953.38
2023-03-27T15:11:33.579Z,96958.22
2023-03-27T15:14:01.432Z,96955.28
2023-03-27T15:16:30.748Z,96972.09
2023-03-27T15:19:04.719Z,96965.47
2023-03-27T15:21:39.094Z,96977.06
2023-03-27T15:24:10.803Z,96994.47
2023-03-27T15:26:38.654Z,96998.91
2023-03-27T15:29:08.980Z,97001.53
2023-03-27T15:31:38.752Z,96987.00
2023-03-27T15:34:08.248Z,96997.94
2023-03-27T15:36:39.029Z,96991.06
2023-03-27T15:39:11.438Z,96994.25
2023-03-27T15:41:43.237Z,96994.84
2023-03-27T15:44:13.358Z,96995.06
2023-03-27T15:47:05.001Z,96988.38
2023-03-27T15:49:34.298Z,96993.88
2023-03-27T15:52:29.727Z,97003.88
2023-03-27T15:54:57.513Z,96998.09
2023-03-27T15:57:29.164Z,97005.44
2023-03-27T16:00:01.146Z,97003.38
2023-03-27T16:02:29.229Z,97002.88
2023-03-27T16:04:58.598Z,97013.66
2023-03-27T16:07:30.359Z,97010.88
2023-03-27T16:09:59.795Z,97008.94
2023-03-27T16:12:32.253Z,97015.44
2023-03-27T16:15:00.857Z,97022.19
2023-03-27T16:17:34.257Z,97027.84
2023-03-27T16:20:22.754Z,97027.44
2023-03-27T16:22:52.623Z,97036.56
2023-03-27T16:25:20.163Z,97027.19
2023-03-27T16:27:49.653Z,97042.34
2023-03-27T16:30:22.586Z,97042.22
2023-03-27T16:32:51.126Z,97047.44
2023-03-27T16:35:18.887Z,97049.78
2023-03-27T16:37:46.432Z,97056.81
2023-03-27T16:40:15.760Z,97058.72
2023-03-27T16:42:43.474Z,97060.91
2023-03-27T16:45:11.741Z,97058.72
2023-03-27T16:47:41.379Z,97070.97
2023-03-27T16:50:11.918Z,97074.31
2023-03-27T16:52:39.502Z,97068.53
2023-03-27T16:55:08.226Z,97067.53
2023-03-27T16:57:37.274Z,97071.31
2023-03-27T17:00:06.448Z,97082.28
2023-03-27T17:02:36.349Z,97088.47
2023-03-27T17:05:04.237Z,97085.44
2023-03-27T17:07:31.873Z,97082.06
2023-03-27T17:09:59.399Z,97088.91
2023-03-27T17:12:28.676Z,97088.19
2023-03-27T17:14:57.896Z,97083.19
2023-03-27T17:17:27.390Z,97080.50
2023-03-27T17:19:55.253Z,97088.56
2023-03-27T17:22:22.813Z,97094.78
2023-03-27T17:24:57.001Z,97099.03
2023-03-27T17:27:26.313Z,97112.06
2023-03-27T17:29:55.551Z,97120.97
2023-03-27T17:32:24.800Z,97122.28
2023-03-27T17:34:52.448Z,97119.63
2023-03-27T17:37:20.857Z,97125.72
2023-03-27T17:39:48.524Z,97128.84
2023-03-27T17:42:16.651Z,97138.50
2023-03-27T17:44:45.131Z,97138.00
2023-03-27T17:47:13.296Z,97144.19
2023-03-27T17:49:43.253Z,97138.16
2023-03-27T17:52:11.951Z,97145.41
2023-03-27T17:54:40.157Z,97151.94
2023-03-27T17:57:08.141Z,97147.78
2023-03-27T17:59:36.373Z,97155.63
2023-03-27T18:02:03.970Z,97156.34
2023-03-27T18:04:33.084Z,97154.25
2023-03-27T18:07:02.033Z,97161.25
2023-03-27T18:09:29.545Z,97155.56
2023-03-27T18:11:57.073Z,97167.75
2023-03-27T18:14:25.075Z,97175.59
2023-03-27T18:16:52.606Z,97182.47
2023-03-27T18:19:20.247Z,97180.66
2023-03-27T18:21:47.783Z,97190.59
2023-03-27T18:24:16.654Z,97186.22
2023-03-27T18:26:44.205Z,97187.06
2023-03-27T18:29:11.839Z,97191.88
2023-03-27T18:31:39.420Z,97194.34
2023-03-27T18:34:06.969Z,97199.06
2023-03-27T18:36:34.512Z,97204.63
2023-03-27T18:39:02.928Z,97203.31
2023-03-27T18:41:32.250Z,97206.25
2023-03-27T18:44:00.298Z,97204.72
2023-03-27T18:46:27.996Z,97209.41
2023-03-27T18:48:56.977Z,97215.22
2023-03-27T18:51:24.524Z,97215.06
2023-03-27T18:53:52.172Z,97214.34
2023-03-27T18:56:19.726Z,97229.38
2023-03-27T18:58:49.391Z,97220.47
2023-03-27T19:01:17.493Z,97225.22
2023-03-27T19:03:45.208Z,97230.56
2023-03-27T19:06:13.355Z,97230.81
2023-03-27T19:08:42.535Z,97227.84
2023-03-27T19:11:10.968Z,97227.75
2023-03-27T19:13:39.262Z,97238.44
2023-03-27T19:16:14.126Z,97229.44
2023-03-27T19:18:42.999Z,97228.03
2023-03-27T19:21:11.534Z,97232.94
2023-03-27T19:23:39.209Z,97228.81
2023-03-27T19:26:07.970Z,97231.66
2023-03-27T19:28:35.874Z,97231.03
2023-03-27T19:31:08.129Z,97242.13
2023-03-27T19:33:36.137Z,97241.66
2023-03-27T19:36:03.730Z,97244.00
2023-03-27T19:38:32.056Z,97250.34
2023-03-27T19:40:59.849Z,97256.25
2023-03-27T19:43:28.034Z,97271.78
2023-03-27T19:46:08.053Z,97271.94
2023-03-27T19:48:43.810Z,97287.59
2023-03-27T19:51:11.397Z,97278.75
2023-03-27T19:53:38.904Z,97284.22
2023-03-27T19:56:06.989Z,97284.94
2023-03-27T19:58:34.545Z,97284.63
2023-03-27T20:01:02.109Z,97286.53
2023-03-27T20:03:29.856Z,97280.53
2023-03-27T20:06:07.505Z,97276.63
2023-03-27T20:08:38.140Z,97286.94
2023-03-27T20:11:06.852Z,97275.44
2023-03-27T20:13:42.492Z,97275.44
2023-03-27T20:16:19.218Z,97284.09
2023-03-27T20:18:55.121Z,97285.97
2023-03-27T20:21:25.652Z,97283.50
2023-03-27T20:23:54.709Z,97288.00
2023-03-27T20:26:22.815Z,97293.22
2023-03-27T20:28:50.914Z,97295.94
2023-03-27T20:31:19.482Z,97303.16
2023-03-27T20:33:47.819Z,97300.19
2023-03-27T20:36:16.570Z,97300.19
2023-03-27T20:38:46.352Z,97296.84
2023-03-27T20:41:15.797Z,97295.63
2023-03-27T20:43:44.913Z,97304.59
2023-03-27T20:46:14.084Z,97306.31
2023-03-27T20:48:44.931Z,97312.44
2023-03-27T20:51:24.198Z,97307.28
2023-03-27T20:53:58.156Z,97314.81
2023-03-27T20:56:25.749Z,97322.41
2023-03-27T20:58:53.508Z,97308.16
2023-03-27T21:01:27.280Z,97314.19
2023-03-27T21:03:58.326Z,97312.03
2023-03-27T21:06:26.334Z,97313.06
2023-03-27T21:08:55.299Z,97308.00
2023-03-27T21:11:22.815Z,97306.06
2023-03-27T21:13:50.481Z,97319.28
2023-03-27T21:16:18.442Z,97327.72
2023-03-27T21:18:45.976Z,97322.94
2023-03-27T21:21:13.579Z,97332.53
2023-03-27T21:23:41.492Z,97330.75
2023-03-27T21:26:10.815Z,97339.47
2023-03-27T21:28:38.410Z,97330.88
2023-03-27T21:31:07.599Z,97334.06
2023-03-27T21:33:35.354Z,97329.09
2023-03-27T21:36:03.374Z,97327.63
2023-03-27T21:38:31.548Z,97327.63
2023-03-27T21:40:59.235Z,97323.38
2023-03-27T21:43:28.332Z,97324.63
2023-03-27T21:45:56.157Z,97329.19
2023-03-27T21:48:23.941Z,97335.13
2023-03-27T21:50:51.619Z,97328.47
2023-03-27T21:53:19.277Z,97329.94
2023-03-27T21:55:47.722Z,97333.34
2023-03-27T21:58:15.470Z,97337.41
2023-03-27T22:00:47.045Z,97337.13
2023-03-27T22:03:15.472Z,97337.66
2023-03-27T22:05:43.994Z,97341.38
2023-03-27T22:08:14.005Z,97348.38
2023-03-27T22:10:41.830Z,97346.28
2023-03-27T22:13:09.886Z,97344.31
2023-03-27T22:15:37.676Z,97353.34
2023-03-27T22:18:06.831Z,97360.41
2023-03-27T22:20:34.626Z,97356.56
2023-03-27T22:23:02.293Z,97359.09
2023-03-27T22:25:30.010Z,97358.66
2023-03-27T22:27:58.753Z,97359.66
2023-03-27T22:30:28.238Z,97369.47
2023-03-27T22:32:56.135Z,97367.81
2023-03-27T22:35:25.273Z,97368.41
2023-03-27T22:37:53.117Z,97363.00
2023-03-27T22:40:20.948Z,97371.53
2023-03-27T22:42:48.641Z,97375.59
2023-03-27T22:45:16.327Z,97377.38
2023-03-27T22:47:44.023Z,97377.47
2023-03-27T22:50:11.857Z,97374.56
2023-03-27T22:52:40.779Z,97381.44
2023-03-27T22:55:09.645Z,97379.97
2023-03-27T22:57:37.727Z,97388.94
2023-03-27T23:00:07.032Z,97389.31
2023-03-27T23:02:34.741Z,97386.84
2023-03-27T23:05:02.857Z,97389.84
2023-03-27T23:07:31.424Z,97391.19
2023-03-27T23:10:00.295Z,97392.72
2023-03-27T23:12:27.814Z,97404.88
2023-03-27T23:14:55.402Z,97400.09
2023-03-27T23:17:23.153Z,97402.13
2023-03-27T23:19:50.852Z,97407.84
2023-03-27T23:22:19.234Z,97413.66
2023-03-27T23:24:46.796Z,97406.78
2023-03-27T23:27:15.845Z,97417.47
2023-03-27T23:29:43.407Z,97423.28
2023-03-27T23:32:10.999Z,97421.44
2023-03-27T23:34:38.531Z,97422.50
2023-03-27T23:37:06.060Z,97421.38
2023-03-27T23:39:33.614Z,97426.75
2023-03-27T23:42:01.177Z,97431.97
2023-03-27T23:44:30.069Z,97436.56
2023-03-27T23:46:57.867Z,97434.44
2023-03-27T23:49:25.433Z,97441.50
2023-03-27T23:51:53.459Z,97438.38
2023-03-27T23:54:21.030Z,97440.34
2023-03-27T23:56:48.593Z,97438.84
2023-03-27T23:59:16.118Z,97451.84
